Time,TemperatureF,DewpointF,PressureIn,WindDirection,WindDirectionDegrees,WindSpeedMPH,WindSpeedGustMPH,Humidity,HourlyPrecipIn,Conditions,Clouds,dailyrainin,SoftwareType,DateUTC
2013-04-02 00:00:00,31.8,11.9,29.89,NE,35,0.0,0.0,43,0.00,,---,0.00,VWS V14.01,2013-04-02 04:00:00,
2013-04-02 00:01:00,31.8,11.9,29.89,NE,37,0.0,0.0,43,0.00,,---,0.00,VWS V14.01,2013-04-02 04:01:00,
2013-04-02 00:06:00,31.6,11.7,29.89,NE,37,0.0,0.0,43,0.00,,---,0.00,VWS V14.01,2013-04-02 04:06:00,
2013-04-02 00:11:00,31.3,11.4,29.89,NE,37,2.2,2.7,43,0.00,,---,0.00,VWS V14.01,2013-04-02 04:11:00,
2013-04-02 00:16:00,31.1,11.2,29.89,NE,37,0.0,0.0,43,0.00,,---,0.00,VWS V14.01,2013-04-02 04:16:00,
2013-04-02 00:21:00,30.7,11.4,29.89,NE,37,0.0,0.0,44,0.00,,---,0.00,VWS V14.01,2013-04-02 04:21:00,
2013-04-02 00:26:00,30.6,11.2,29.92,NE,37,0.0,0.0,44,0.00,,---,0.00,VWS V14.01,2013-04-02 04:26:00,
2013-04-02 00:31:00,30.4,11.1,29.92,NE,37,0.0,0.0,44,0.00,,---,0.00,VWS V14.01,2013-04-02 04:31:00,
2013-04-02 00:36:00,30.2,11.4,29.92,NE,38,2.7,2.7,45,0.00,,---,0.00,VWS V14.01,2013-04-02 04:36:00,
2013-04-02 00:41:00,30.2,11.4,29.92,NE,38,2.7,2.7,45,0.00,,---,0.00,VWS V14.01,2013-04-02 04:41:00,
2013-04-02 00:46:00,30.0,11.8,29.92,ENE,74,3.1,4.0,46,0.00,,---,0.00,VWS V14.01,2013-04-02 04:46:00,
2013-04-02 00:51:00,30.0,11.8,29.92,ENE,71,3.1,3.6,46,0.00,,---,0.00,VWS V14.01,2013-04-02 04:51:00,
2013-04-02 00:56:00,29.8,12.1,29.92,NE,37,2.7,2.7,47,0.00,,---,0.00,VWS V14.01,2013-04-02 04:56:00,
2013-04-02 01:01:00,30.0,11.3,29.92,NNE,15,4.0,4.0,45,0.00,,---,0.00,VWS V14.01,2013-04-02 05:01:00,
2013-04-02 01:06:00,30.2,11.4,29.92,NNE,29,2.2,3.1,45,0.00,,---,0.00,VWS V14.01,2013-04-02 05:06:00,
2013-04-02 01:11:00,30.0,10.8,29.92,NNE,21,2.7,2.7,44,0.00,,---,0.00,VWS V14.01,2013-04-02 05:11:00,
2013-04-02 01:16:00,29.8,10.6,29.92,NE,46,0.0,2.7,44,0.00,,---,0.00,VWS V14.01,2013-04-02 05:16:00,
2013-04-02 01:21:00,29.8,10.6,29.92,NE,51,0.0,0.0,44,0.00,,---,0.00,VWS V14.01,2013-04-02 05:21:00,
2013-04-02 01:26:00,29.8,10.1,29.92,NE,40,2.7,3.1,43,0.00,,---,0.00,VWS V14.01,2013-04-02 05:26:00,
2013-04-02 01:31:00,29.8,9.6,29.92,ESE,114,2.2,4.0,42,0.00,,---,0.00,VWS V14.01,2013-04-02 05:31:00,
2013-04-02 01:36:00,30.0,9.7,29.92,East,81,3.1,3.1,42,0.00,,---,0.00,VWS V14.01,2013-04-02 05:36:00,
2013-04-02 01:41:00,30.2,9.4,29.92,NE,40,2.7,2.7,41,0.00,,---,0.00,VWS V14.01,2013-04-02 05:41:00,
2013-04-02 01:46:00,30.4,9.5,29.92,NE,55,2.7,2.7,41,0.00,,---,0.00,VWS V14.01,2013-04-02 05:46:00,
2013-04-02 01:51:00,30.0,9.2,29.92,NE,55,0.0,0.0,41,0.00,,---,0.00,VWS V14.01,2013-04-02 05:51:00,
2013-04-02 01:56:00,29.7,8.9,29.92,NE,55,0.0,0.0,41,0.00,,---,0.00,VWS V14.01,2013-04-02 05:56:00,
2013-04-02 02:01:00,29.5,9.2,29.92,ENE,59,0.0,0.0,42,0.00,,---,0.00,VWS V14.01,2013-04-02 06:01:00,
2013-04-02 02:06:00,29.3,9.1,29.92,NE,52,0.0,2.2,42,0.00,,---,0.00,VWS V14.01,2013-04-02 06:06:00,
2013-04-02 02:11:00,29.1,8.9,29.92,ENE,69,0.0,0.0,42,0.00,,---,0.00,VWS V14.01,2013-04-02 06:11:00,
2013-04-02 02:16:00,29.1,8.9,29.92,ENE,68,0.0,0.0,42,0.00,,---,0.00,VWS V14.01,2013-04-02 06:16:00,
2013-04-02 02:21:00,28.9,8.2,29.92,East,80,0.0,0.0,41,0.00,,---,0.00,VWS V14.01,2013-04-02 06:21:00,
2013-04-02 02:26:00,29.3,8.5,29.92,NE,51,0.0,0.0,41,0.00,,---,0.00,VWS V14.01,2013-04-02 06:26:00,
2013-04-02 02:31:00,29.5,8.7,29.92,SSW,199,0.0,4.9,41,0.00,,---,0.00,VWS V14.01,2013-04-02 06:31:00,
2013-04-02 02:36:00,30.0,8.6,29.92,NE,41,0.0,2.7,40,0.00,,---,0.00,VWS V14.01,2013-04-02 06:36:00,
2013-04-02 02:41:00,29.8,9.0,29.92,NE,39,0.0,0.0,41,0.00,,---,0.00,VWS V14.01,2013-04-02 06:41:00,
2013-04-02 02:46:00,30.0,8.6,29.92,East,81,0.0,0.0,40,0.00,,---,0.00,VWS V14.01,2013-04-02 06:46:00,
2013-04-02 02:51:00,30.0,8.6,29.92,East,79,0.0,0.0,40,0.00,,---,0.00,VWS V14.01,2013-04-02 06:51:00,
2013-04-02 02:56:00,30.0,8.6,29.92,NNE,29,0.0,0.0,40,0.00,,---,0.00,VWS V14.01,2013-04-02 06:56:00,
2013-04-02 03:01:00,30.0,8.6,29.92,South,171,0.0,0.0,40,0.00,,---,0.00,VWS V14.01,2013-04-02 07:01:00,
2013-04-02 03:06:00,30.0,8.1,29.92,SSE,161,6.3,6.3,39,0.00,,---,0.00,VWS V14.01,2013-04-02 07:06:00,
2013-04-02 03:11:00,30.2,8.2,29.92,West,266,0.0,3.1,39,0.00,,---,0.00,VWS V14.01,2013-04-02 07:11:00,
2013-04-02 03:16:00,30.4,8.4,29.92,NE,56,0.0,3.1,39,0.00,,---,0.00,VWS V14.01,2013-04-02 07:16:00,
2013-04-02 03:21:00,30.2,8.2,29.92,South,188,4.0,4.9,39,0.00,,---,0.00,VWS V14.01,2013-04-02 07:21:00,
2013-04-02 03:26:00,30.4,7.8,29.92,South,174,0.0,4.0,38,0.00,,---,0.00,VWS V14.01,2013-04-02 07:26:00,
2013-04-02 03:31:00,30.4,7.8,29.92,SSW,203,0.0,3.6,38,0.00,,---,0.00,VWS V14.01,2013-04-02 07:31:00,
2013-04-02 03:36:00,30.4,7.2,29.92,NW,316,2.7,5.8,37,0.00,,---,0.00,VWS V14.01,2013-04-02 07:36:00,
2013-04-02 03:41:00,30.7,7.6,29.92,SSW,202,3.1,3.1,37,0.00,,---,0.00,VWS V14.01,2013-04-02 07:41:00,
2013-04-02 03:46:00,30.7,7.6,29.92,ESE,108,0.0,0.0,37,0.00,,---,0.00,VWS V14.01,2013-04-02 07:46:00,
2013-04-02 03:51:00,30.6,8.0,29.92,ESE,108,0.0,0.0,38,0.00,,---,0.00,VWS V14.01,2013-04-02 07:51:00,
2013-04-02 03:56:00,30.2,8.2,29.92,East,97,0.0,0.0,39,0.00,,---,0.00,VWS V14.01,2013-04-02 07:56:00,
2013-04-02 04:01:00,30.2,8.2,29.92,SSE,163,0.0,0.0,39,0.00,,---,0.00,VWS V14.01,2013-04-02 08:01:00,
2013-04-02 04:06:00,30.0,8.6,29.92,SSE,162,0.0,0.0,40,0.00,,---,0.00,VWS V14.01,2013-04-02 08:06:00,
2013-04-02 04:11:00,30.0,8.1,29.92,SSE,155,3.6,4.0,39,0.00,,---,0.00,VWS V14.01,2013-04-02 08:11:00,
2013-04-02 04:16:00,30.4,7.2,29.92,SW,226,4.0,4.0,37,0.00,,---,0.00,VWS V14.01,2013-04-02 08:16:00,
2013-04-02 04:21:00,30.7,7.0,29.92,SW,230,2.7,4.0,36,0.00,,---,0.00,VWS V14.01,2013-04-02 08:21:00,
2013-04-02 04:26:00,30.7,7.6,29.92,SSE,153,0.0,3.1,37,0.00,,---,0.00,VWS V14.01,2013-04-02 08:26:00,
2013-04-02 04:31:00,30.7,7.0,29.92,WSW,241,0.0,0.0,36,0.00,,---,0.00,VWS V14.01,2013-04-02 08:31:00,
2013-04-02 04:36:00,30.6,7.4,29.92,SW,217,0.0,2.7,37,0.00,,---,0.00,VWS V14.01,2013-04-02 08:36:00,
2013-04-02 04:41:00,30.4,7.8,29.92,South,172,3.1,3.1,38,0.00,,---,0.00,VWS V14.01,2013-04-02 08:41:00,
2013-04-02 04:46:00,30.4,7.2,29.92,South,179,0.0,0.0,37,0.00,,---,0.00,VWS V14.01,2013-04-02 08:46:00,
2013-04-02 04:51:00,30.2,7.7,29.92,ESE,120,2.7,3.1,38,0.00,,---,0.00,VWS V14.01,2013-04-02 08:51:00,
2013-04-02 04:56:00,30.2,7.7,29.92,ESE,120,0.0,0.0,38,0.00,,---,0.00,VWS V14.01,2013-04-02 08:56:00,
2013-04-02 05:01:00,30.2,7.7,29.92,ESE,120,0.0,0.0,38,0.00,,---,0.00,VWS V14.01,2013-04-02 09:01:00,
2013-04-02 05:06:00,30.2,7.1,29.92,South,187,4.0,5.4,37,0.00,,---,0.00,VWS V14.01,2013-04-02 09:06:00,
2013-04-02 05:11:00,30.4,6.6,29.92,South,175,8.1,8.1,36,0.00,,---,0.00,VWS V14.01,2013-04-02 09:11:00,
2013-04-02 05:16:00,30.6,6.8,29.92,SSW,196,0.0,2.2,36,0.00,,---,0.00,VWS V14.01,2013-04-02 09:16:00,
2013-04-02 05:21:00,30.6,6.8,29.92,ESE,123,0.0,0.0,36,0.00,,---,0.00,VWS V14.01,2013-04-02 09:21:00,
2013-04-02 05:26:00,30.6,6.8,29.92,East,100,3.6,4.9,36,0.00,,---,0.00,VWS V14.01,2013-04-02 09:26:00,
2013-04-02 05:31:00,30.4,6.6,29.92,East,91,0.0,0.0,36,0.00,,---,0.00,VWS V14.01,2013-04-02 09:31:00,
2013-04-02 05:36:00,30.4,6.6,29.92,East,91,0.0,0.0,36,0.00,,---,0.00,VWS V14.01,2013-04-02 09:36:00,
2013-04-02 05:41:00,30.2,6.5,29.92,East,91,0.0,0.0,36,0.00,,---,0.00,VWS V14.01,2013-04-02 09:41:00,
2013-04-02 05:46:00,30.2,7.1,29.92,East,91,0.0,0.0,37,0.00,,---,0.00,VWS V14.01,2013-04-02 09:46:00,
2013-04-02 05:51:00,30.0,6.9,29.92,SE,136,0.0,0.0,37,0.00,,---,0.00,VWS V14.01,2013-04-02 09:51:00,
2013-04-02 05:56:00,30.2,6.5,29.95,East,98,0.0,0.0,36,0.00,,---,0.00,VWS V14.01,2013-04-02 09:56:00,
2013-04-02 06:01:00,30.2,6.5,29.95,East,82,0.0,3.1,36,0.00,,---,0.00,VWS V14.01,2013-04-02 10:01:00,
2013-04-02 06:06:00,30.2,6.5,29.95,ESE,110,0.0,0.0,36,0.00,,---,0.00,VWS V14.01,2013-04-02 10:06:00,
2013-04-02 06:11:00,30.2,6.5,29.95,East,97,2.7,2.7,36,0.00,,---,0.00,VWS V14.01,2013-04-02 10:11:00,
2013-04-02 06:16:00,30.2,6.5,29.95,East,84,0.0,2.2,36,0.00,,---,0.00,VWS V14.01,2013-04-02 10:16:00,
2013-04-02 06:21:00,30.2,5.9,29.95,East,95,0.0,2.2,35,0.00,,---,0.00,VWS V14.01,2013-04-02 10:21:00,
2013-04-02 06:26:00,30.2,5.9,29.95,East,95,0.0,0.0,35,0.00,,---,0.00,VWS V14.01,2013-04-02 10:26:00,
2013-04-02 06:31:00,30.0,6.3,29.95,East,95,0.0,0.0,36,0.00,,---,0.00,VWS V14.01,2013-04-02 10:31:00,
2013-04-02 06:36:00,30.0,6.3,29.95,East,95,0.0,0.0,36,0.00,,---,0.00,VWS V14.01,2013-04-02 10:36:00,
2013-04-02 06:41:00,29.8,6.2,29.95,East,95,0.0,0.0,36,0.00,,---,0.00,VWS V14.01,2013-04-02 10:41:00,
2013-04-02 06:46:00,29.7,6.6,29.95,East,95,0.0,0.0,37,0.00,,---,0.00,VWS V14.01,2013-04-02 10:46:00,
2013-04-02 06:51:00,29.7,6.0,29.95,East,95,0.0,0.0,36,0.00,,---,0.00,VWS V14.01,2013-04-02 10:51:00,
2013-04-02 06:56:00,29.5,6.4,29.95,East,95,0.0,0.0,37,0.00,,---,0.00,VWS V14.01,2013-04-02 10:56:00,
2013-04-02 07:01:00,29.1,7.3,29.95,East,95,0.0,0.0,39,0.00,,---,0.00,VWS V14.01,2013-04-02 11:01:00,
2013-04-02 07:06:00,28.9,7.7,29.95,East,95,0.0,0.0,40,0.00,,---,0.00,VWS V14.01,2013-04-02 11:06:00,
2013-04-02 07:11:00,28.6,7.9,29.95,East,95,0.0,0.0,41,0.00,,---,0.00,VWS V14.01,2013-04-02 11:11:00,
2013-04-02 07:16:00,28.4,8.2,29.98,East,95,0.0,0.0,42,0.00,,---,0.00,VWS V14.01,2013-04-02 11:16:00,
2013-04-02 07:21:00,28.2,8.1,29.98,East,95,0.0,0.0,42,0.00,,---,0.00,VWS V14.01,2013-04-02 11:21:00,
2013-04-02 07:26:00,28.0,7.9,29.98,East,95,0.0,0.0,42,0.00,,---,0.00,VWS V14.01,2013-04-02 11:26:00,
2013-04-02 07:31:00,27.9,7.8,29.98,East,95,0.0,0.0,42,0.00,,---,0.00,VWS V14.01,2013-04-02 11:31:00,
2013-04-02 07:36:00,27.7,7.6,29.98,East,95,0.0,0.0,42,0.00,,---,0.00,VWS V14.01,2013-04-02 11:36:00,
2013-04-02 07:41:00,27.7,7.6,29.98,East,95,0.0,0.0,42,0.00,,---,0.00,VWS V14.01,2013-04-02 11:41:00,
2013-04-02 07:46:00,27.5,7.9,29.98,East,95,0.0,0.0,43,0.00,,---,0.00,VWS V14.01,2013-04-02 11:46:00,
2013-04-02 07:51:00,27.5,6.9,29.98,SW,225,4.0,7.2,41,0.00,,---,0.00,VWS V14.01,2013-04-02 11:51:00,
2013-04-02 07:56:00,28.2,7.0,29.98,WSW,257,0.0,0.0,40,0.00,,---,0.00,VWS V14.01,2013-04-02 11:56:00,
2013-04-02 08:01:00,28.6,6.8,29.98,SSW,192,2.7,5.8,39,0.00,,---,0.00,VWS V14.01,2013-04-02 12:01:00,
2013-04-02 08:06:00,28.8,5.8,29.98,WSW,250,3.6,5.4,37,0.00,,---,0.00,VWS V14.01,2013-04-02 12:06:00,
2013-04-02 08:11:00,29.1,6.1,29.98,SW,223,4.0,4.0,37,0.00,,---,0.00,VWS V14.01,2013-04-02 12:11:00,
2013-04-02 08:16:00,29.3,5.7,30.01,North,357,0.0,2.7,36,0.00,,---,0.00,VWS V14.01,2013-04-02 12:16:00,
2013-04-02 08:21:00,29.5,5.2,30.01,SW,226,3.6,3.6,35,0.00,,---,0.00,VWS V14.01,2013-04-02 12:21:00,
2013-04-02 08:26:00,29.5,5.2,30.01,SW,220,10.1,10.1,35,0.00,,---,0.00,VWS V14.01,2013-04-02 12:26:00,
2013-04-02 08:31:00,29.7,5.4,30.01,SSW,193,5.8,7.6,35,0.00,,---,0.00,VWS V14.01,2013-04-02 12:31:00,
2013-04-02 08:36:00,29.7,4.7,30.01,SW,214,6.3,10.1,34,0.00,,---,0.00,VWS V14.01,2013-04-02 12:36:00,
2013-04-02 08:41:00,29.7,4.7,30.01,SW,233,8.3,8.3,34,0.00,,---,0.00,VWS V14.01,2013-04-02 12:41:00,
2013-04-02 08:46:00,29.8,4.9,30.01,SSW,209,4.0,4.0,34,0.00,,---,0.00,VWS V14.01,2013-04-02 12:46:00,
2013-04-02 08:51:00,30.0,5.1,30.01,SW,233,0.0,3.6,34,0.00,,---,0.00,VWS V14.01,2013-04-02 12:51:00,
2013-04-02 08:56:00,30.0,5.1,30.01,SSE,164,0.0,4.9,34,0.00,,---,0.00,VWS V14.01,2013-04-02 12:56:00,
2013-04-02 09:01:00,30.0,5.1,30.01,SSW,205,0.0,0.0,34,0.00,,---,0.00,VWS V14.01,2013-04-02 13:01:00,
2013-04-02 09:06:00,30.0,5.1,30.01,SSE,166,0.0,2.7,34,0.00,,---,0.00,VWS V14.01,2013-04-02 13:06:00,
2013-04-02 09:11:00,30.0,4.4,30.01,East,99,2.7,5.4,33,0.00,,---,0.00,VWS V14.01,2013-04-02 13:11:00,
2013-04-02 09:16:00,29.8,4.2,30.01,SSE,168,3.6,7.6,33,0.00,,---,0.00,VWS V14.01,2013-04-02 13:16:00,
2013-04-02 09:21:00,29.8,4.2,30.01,SSW,196,2.7,4.0,33,0.00,,---,0.00,VWS V14.01,2013-04-02 13:21:00,
2013-04-02 09:26:00,30.0,4.4,30.01,South,187,3.1,4.0,33,0.00,,---,0.00,VWS V14.01,2013-04-02 13:26:00,
2013-04-02 09:31:00,30.2,3.9,30.01,SSW,211,3.1,6.3,32,0.00,,---,0.00,VWS V14.01,2013-04-02 13:31:00,
2013-04-02 09:36:00,30.4,4.1,30.01,East,92,2.7,4.0,32,0.00,,---,0.00,VWS V14.01,2013-04-02 13:36:00,
2013-04-02 09:41:00,30.6,4.2,30.01,ENE,77,3.1,5.4,32,0.00,,---,0.00,VWS V14.01,2013-04-02 13:41:00,
2013-04-02 09:46:00,30.9,4.5,30.01,SSW,192,0.0,2.7,32,0.00,,---,0.00,VWS V14.01,2013-04-02 13:46:00,
2013-04-02 09:51:00,31.1,4.7,30.01,East,95,2.2,2.7,32,0.00,,---,0.00,VWS V14.01,2013-04-02 13:51:00,
2013-04-02 09:56:00,31.3,4.2,30.01,SE,135,5.8,5.8,31,0.00,,---,0.00,VWS V14.01,2013-04-02 13:56:00,
2013-04-02 10:01:00,31.5,4.3,30.01,South,186,5.4,5.4,31,0.00,,---,0.00,VWS V14.01,2013-04-02 14:01:00,
2013-04-02 10:06:00,32.0,4.8,30.01,SW,227,6.3,6.3,31,0.00,,---,0.00,VWS V14.01,2013-04-02 14:06:00,
2013-04-02 10:11:00,32.0,4.8,30.01,SW,215,10.1,10.1,31,0.00,,---,0.00,VWS V14.01,2013-04-02 14:11:00,
2013-04-02 10:16:00,32.0,4.8,30.01,SSW,207,5.4,5.8,31,0.00,,---,0.00,VWS V14.01,2013-04-02 14:16:00,
2013-04-02 10:21:00,31.8,4.6,30.01,SW,214,12.8,12.8,31,0.00,,---,0.00,VWS V14.01,2013-04-02 14:21:00,
2013-04-02 10:26:00,32.0,4.8,30.01,SSW,204,5.8,8.1,31,0.00,,---,0.00,VWS V14.01,2013-04-02 14:26:00,
2013-04-02 10:31:00,32.0,4.8,30.01,SSW,206,6.3,11.4,31,0.00,,---,0.00,VWS V14.01,2013-04-02 14:31:00,
2013-04-02 10:36:00,32.2,5.0,30.01,WSW,240,8.7,8.7,31,0.00,,---,0.00,VWS V14.01,2013-04-02 14:36:00,
2013-04-02 10:41:00,32.4,4.4,30.01,South,188,14.5,15.0,30,0.00,,---,0.00,VWS V14.01,2013-04-02 14:41:00,
2013-04-02 10:46:00,32.2,4.2,30.01,SSW,206,8.1,8.1,30,0.00,,---,0.00,VWS V14.01,2013-04-02 14:46:00,
2013-04-02 10:51:00,32.7,4.7,30.01,WSW,256,10.5,10.5,30,0.00,,---,0.00,VWS V14.01,2013-04-02 14:51:00,
2013-04-02 10:56:00,33.1,5.0,30.03,South,170,3.1,3.6,30,0.00,,---,0.00,VWS V14.01,2013-04-02 14:56:00,
2013-04-02 11:02:00,33.6,5.5,30.03,SE,135,4.0,8.7,30,0.00,,---,0.00,VWS V14.01,2013-04-02 15:02:00,
2013-04-02 11:07:00,33.6,5.5,30.03,ESE,112,5.4,6.3,30,0.00,,---,0.00,VWS V14.01,2013-04-02 15:07:00,
2013-04-02 11:12:00,34.3,6.1,30.03,NNE,13,0.0,3.1,30,0.00,,---,0.00,VWS V14.01,2013-04-02 15:12:00,
2013-04-02 11:17:00,35.1,6.8,30.03,East,83,0.0,5.4,30,0.00,,---,0.00,VWS V14.01,2013-04-02 15:17:00,
2013-04-02 11:22:00,35.4,4.8,30.03,SW,217,4.0,7.6,27,0.00,,---,0.00,VWS V14.01,2013-04-02 15:22:00,
2013-04-02 11:27:00,35.4,4.8,30.03,East,88,4.9,4.9,27,0.00,,---,0.00,VWS V14.01,2013-04-02 15:27:00,
2013-04-02 11:32:00,36.1,7.0,30.03,South,182,2.2,2.7,29,0.00,,---,0.00,VWS V14.01,2013-04-02 15:32:00,
2013-04-02 11:37:00,36.7,5.9,30.03,ESE,115,4.0,4.0,27,0.00,,---,0.00,VWS V14.01,2013-04-02 15:37:00,
2013-04-02 11:42:00,36.9,6.0,30.01,East,83,3.6,6.3,27,0.00,,---,0.00,VWS V14.01,2013-04-02 15:42:00,
2013-04-02 11:47:00,37.2,6.3,30.01,SSE,167,4.0,6.3,27,0.00,,---,0.00,VWS V14.01,2013-04-02 15:47:00,
2013-04-02 11:52:00,37.0,6.2,30.01,SW,217,12.8,12.8,27,0.00,,---,0.00,VWS V14.01,2013-04-02 15:52:00,
2013-04-02 11:57:00,36.5,3.2,30.01,SSW,212,5.8,9.2,24,0.00,,---,0.00,VWS V14.01,2013-04-02 15:57:00,
2013-04-02 12:02:00,36.5,5.7,30.01,South,173,8.7,8.7,27,0.00,,---,0.00,VWS V14.01,2013-04-02 16:02:00,
2013-04-02 12:07:00,36.9,6.0,30.01,SW,232,5.4,5.8,27,0.00,,---,0.00,VWS V14.01,2013-04-02 16:07:00,
2013-04-02 12:12:00,37.4,3.9,30.01,SE,143,10.1,10.1,24,0.00,,---,0.00,VWS V14.01,2013-04-02 16:12:00,
2013-04-02 12:17:00,37.4,3.9,30.01,South,173,10.5,10.5,24,0.00,,---,0.00,VWS V14.01,2013-04-02 16:17:00,
2013-04-02 12:22:00,37.4,3.9,30.01,South,169,7.6,8.3,24,0.00,,---,0.00,VWS V14.01,2013-04-02 16:22:00,
2013-04-02 12:27:00,37.6,4.1,30.01,SW,235,8.7,14.5,24,0.00,,---,0.00,VWS V14.01,2013-04-02 16:27:00,
2013-04-02 12:33:00,37.8,4.2,30.01,SSW,192,11.0,11.0,24,0.00,,---,0.00,VWS V14.01,2013-04-02 16:33:00,
2013-04-02 12:38:00,37.8,4.2,30.01,NW,326,4.9,5.8,24,0.00,,---,0.00,VWS V14.01,2013-04-02 16:38:00,
2013-04-02 12:43:00,38.7,5.0,30.01,SW,219,8.3,10.1,24,0.00,,---,0.00,VWS V14.01,2013-04-02 16:43:00,
2013-04-02 12:48:00,38.8,5.2,30.01,SSW,213,10.5,10.5,24,0.00,,---,0.00,VWS V14.01,2013-04-02 16:48:00,
2013-04-02 12:53:00,39.0,5.3,30.01,SSW,210,10.1,12.3,24,0.00,,---,0.00,VWS V14.01,2013-04-02 16:53:00,
2013-04-02 12:58:00,39.0,5.3,30.01,SSW,212,7.6,7.6,24,0.00,,---,0.00,VWS V14.01,2013-04-02 16:58:00,
2013-04-02 13:03:00,39.7,5.0,30.01,SW,232,8.7,8.7,23,0.00,,---,0.00,VWS V14.01,2013-04-02 17:03:00,
2013-04-02 13:09:00,40.3,5.4,30.01,South,189,6.3,8.1,23,0.00,,---,0.00,VWS V14.01,2013-04-02 17:09:00,
2013-04-02 13:14:00,40.5,5.6,30.01,South,169,4.0,4.9,23,0.00,,---,0.00,VWS V14.01,2013-04-02 17:14:00,
2013-04-02 13:19:00,40.8,5.9,30.01,SE,136,2.7,5.8,23,0.00,,---,0.00,VWS V14.01,2013-04-02 17:19:00,
2013-04-02 13:24:00,41.0,6.1,30.01,West,267,3.1,4.0,23,0.00,,---,0.00,VWS V14.01,2013-04-02 17:24:00,
2013-04-02 13:29:00,41.5,6.5,30.01,SSW,206,6.3,7.2,23,0.00,,---,0.00,VWS V14.01,2013-04-02 17:29:00,
2013-04-02 13:34:00,42.3,5.1,30.01,WSW,237,6.3,13.6,21,0.00,,---,0.00,VWS V14.01,2013-04-02 17:34:00,
2013-04-02 13:39:00,41.2,4.2,30.01,SW,214,8.7,8.7,21,0.00,,---,0.00,VWS V14.01,2013-04-02 17:39:00,
2013-04-02 13:44:00,41.0,6.1,30.01,South,177,8.1,8.1,23,0.00,,---,0.00,VWS V14.01,2013-04-02 17:44:00,
2013-04-02 13:49:00,41.0,4.1,30.01,South,173,8.7,13.2,21,0.00,,---,0.00,VWS V14.01,2013-04-02 17:49:00,
2013-04-02 13:54:00,41.0,4.1,30.01,SW,235,7.6,10.1,21,0.00,,---,0.00,VWS V14.01,2013-04-02 17:54:00,
2013-04-02 13:59:00,41.0,4.1,29.98,SW,225,4.9,5.8,21,0.00,,---,0.00,VWS V14.01,2013-04-02 17:59:00,
2013-04-02 14:04:00,41.7,4.7,29.98,SSW,203,3.6,4.9,21,0.00,,---,0.00,VWS V14.01,2013-04-02 18:04:00,
2013-04-02 14:09:00,42.8,4.5,29.98,SSW,196,5.4,5.8,20,0.00,,---,0.00,VWS V14.01,2013-04-02 18:09:00,
2013-04-02 14:14:00,43.0,4.7,29.98,SSW,192,8.7,15.4,20,0.00,,---,0.00,VWS V14.01,2013-04-02 18:14:00,
2013-04-02 14:19:00,42.1,5.0,29.98,SSE,160,5.4,8.7,21,0.00,,---,0.00,VWS V14.01,2013-04-02 18:19:00,
2013-04-02 14:25:00,41.7,4.7,29.98,SSW,211,7.6,11.0,21,0.00,,---,0.00,VWS V14.01,2013-04-02 18:25:00,
2013-04-02 14:30:00,41.4,4.4,29.98,WSW,257,7.6,8.3,21,0.00,,---,0.00,VWS V14.01,2013-04-02 18:30:00,
2013-04-02 14:35:00,41.4,4.4,29.98,South,179,8.1,8.1,21,0.00,,---,0.00,VWS V14.01,2013-04-02 18:35:00,
2013-04-02 14:40:00,41.9,4.8,29.98,SW,220,11.0,15.0,21,0.00,,---,0.00,VWS V14.01,2013-04-02 18:40:00,
2013-04-02 14:45:00,42.1,5.0,29.98,South,187,8.1,14.5,21,0.00,,---,0.00,VWS V14.01,2013-04-02 18:45:00,
2013-04-02 14:50:00,42.1,5.0,29.98,South,169,6.3,6.3,21,0.00,,---,0.00,VWS V14.01,2013-04-02 18:50:00,
2013-04-02 14:55:00,42.8,4.5,29.98,SE,144,3.1,4.0,20,0.00,,---,0.00,VWS V14.01,2013-04-02 18:55:00,
2013-04-02 15:00:00,43.3,5.0,29.98,SSW,212,8.1,8.3,20,0.00,,---,0.00,VWS V14.01,2013-04-02 19:00:00,
2013-04-02 15:05:00,43.3,5.0,29.98,South,170,13.2,15.4,20,0.00,,---,0.00,VWS V14.01,2013-04-02 19:05:00,
2013-04-02 15:10:00,43.3,5.0,29.98,SSW,202,6.3,8.1,20,0.00,,---,0.00,VWS V14.01,2013-04-02 19:10:00,
2013-04-02 15:15:00,43.3,5.0,29.98,SSE,166,7.2,8.7,20,0.00,,---,0.00,VWS V14.01,2013-04-02 19:15:00,
2013-04-02 15:20:00,43.7,5.3,29.98,SE,141,4.0,4.0,20,0.00,,---,0.00,VWS V14.01,2013-04-02 19:20:00,
2013-04-02 15:25:00,44.1,5.6,29.98,SSW,213,5.8,8.3,20,0.00,,---,0.00,VWS V14.01,2013-04-02 19:25:00,
2013-04-02 15:31:00,43.9,5.4,29.98,WSW,237,5.4,5.4,20,0.00,,---,0.00,VWS V14.01,2013-04-02 19:31:00,
2013-04-02 15:36:00,44.6,6.0,29.98,SSW,206,4.9,4.9,20,0.00,,---,0.00,VWS V14.01,2013-04-02 19:36:00,
2013-04-02 15:41:00,44.8,6.2,29.98,WSW,251,8.3,8.3,20,0.00,,---,0.00,VWS V14.01,2013-04-02 19:41:00,
2013-04-02 15:46:00,44.4,5.9,29.95,SSW,200,10.1,10.1,20,0.00,,---,0.00,VWS V14.01,2013-04-02 19:46:00,
2013-04-02 15:51:00,44.1,5.6,29.95,West,268,3.6,5.8,20,0.00,,---,0.00,VWS V14.01,2013-04-02 19:51:00,
2013-04-02 15:56:00,45.0,6.3,29.98,South,181,10.1,10.1,20,0.00,,---,0.00,VWS V14.01,2013-04-02 19:56:00,
2013-04-02 16:01:00,44.6,6.0,29.98,WNW,296,9.6,9.6,20,0.00,,---,0.00,VWS V14.01,2013-04-02 20:01:00,
2013-04-02 16:06:00,44.1,5.6,29.98,SW,214,5.4,15.9,20,0.00,,---,0.00,VWS V14.01,2013-04-02 20:06:00,
2013-04-02 16:12:00,43.7,5.3,29.95,SSW,196,13.2,18.8,20,0.00,,---,0.00,VWS V14.01,2013-04-02 20:12:00,
2013-04-02 16:17:00,43.5,5.1,29.95,South,183,10.1,10.1,20,0.00,,---,0.00,VWS V14.01,2013-04-02 20:17:00,
2013-04-02 16:22:00,44.2,5.7,29.95,SW,224,4.0,8.1,20,0.00,,---,0.00,VWS V14.01,2013-04-02 20:22:00,
2013-04-02 16:27:00,45.0,6.3,29.98,SSE,166,5.8,8.7,20,0.00,,---,0.00,VWS V14.01,2013-04-02 20:27:00,
2013-04-02 16:32:00,45.0,6.3,29.98,SW,219,6.3,6.3,20,0.00,,---,0.00,VWS V14.01,2013-04-02 20:32:00,
2013-04-02 16:37:00,45.0,6.3,29.98,South,177,4.0,5.8,20,0.00,,---,0.00,VWS V14.01,2013-04-02 20:37:00,
2013-04-02 16:42:00,45.9,7.1,29.98,WSW,241,3.6,6.3,20,0.00,,---,0.00,VWS V14.01,2013-04-02 20:42:00,
2013-04-02 16:47:00,46.0,7.2,29.98,SSW,200,5.8,6.3,20,0.00,,---,0.00,VWS V14.01,2013-04-02 20:47:00,
2013-04-02 16:52:00,45.9,7.1,29.98,SE,130,3.6,5.8,20,0.00,,---,0.00,VWS V14.01,2013-04-02 20:52:00,
2013-04-02 16:57:00,46.0,7.2,29.98,SSW,197,8.3,8.3,20,0.00,,---,0.00,VWS V14.01,2013-04-02 20:57:00,
2013-04-02 17:02:00,45.9,7.1,29.98,SW,230,6.3,8.1,20,0.00,,---,0.00,VWS V14.01,2013-04-02 21:02:00,
2013-04-02 17:07:00,45.9,7.1,29.98,SSW,212,7.6,10.1,20,0.00,,---,0.00,VWS V14.01,2013-04-02 21:07:00,
2013-04-02 17:13:00,45.3,6.6,29.98,WNW,296,3.6,8.3,20,0.00,,---,0.00,VWS V14.01,2013-04-02 21:13:00,
2013-04-02 17:18:00,45.1,6.5,29.98,SSW,194,5.8,7.6,20,0.00,,---,0.00,VWS V14.01,2013-04-02 21:18:00,
2013-04-02 17:23:00,45.7,6.9,29.98,SSE,167,2.7,6.3,20,0.00,,---,0.00,VWS V14.01,2013-04-02 21:23:00,
2013-04-02 17:28:00,46.0,7.2,29.98,SSW,202,8.7,8.7,20,0.00,,---,0.00,VWS V14.01,2013-04-02 21:28:00,
2013-04-02 17:33:00,46.0,7.2,29.98,West,272,5.4,5.4,20,0.00,,---,0.00,VWS V14.01,2013-04-02 21:33:00,
2013-04-02 17:38:00,45.7,6.9,29.98,SSW,194,2.7,4.9,20,0.00,,---,0.00,VWS V14.01,2013-04-02 21:38:00,
2013-04-02 17:43:00,45.3,6.6,29.98,SSE,149,4.9,4.9,20,0.00,,---,0.00,VWS V14.01,2013-04-02 21:43:00,
2013-04-02 17:48:00,45.5,6.8,29.98,SSW,202,5.8,5.8,20,0.00,,---,0.00,VWS V14.01,2013-04-02 21:48:00,
2013-04-02 17:53:00,45.3,6.6,29.98,South,169,6.3,6.3,20,0.00,,---,0.00,VWS V14.01,2013-04-02 21:53:00,
2013-04-02 17:59:00,45.3,6.6,29.98,SW,218,6.3,10.1,20,0.00,,---,0.00,VWS V14.01,2013-04-02 21:59:00,
2013-04-02 18:04:00,45.1,6.5,29.98,SW,223,8.3,8.3,20,0.00,,---,0.00,VWS V14.01,2013-04-02 22:04:00,
2013-04-02 18:09:00,44.6,6.0,29.98,SSW,200,7.6,7.6,20,0.00,,---,0.00,VWS V14.01,2013-04-02 22:09:00,
2013-04-02 18:14:00,44.2,5.7,29.98,WSW,238,6.3,8.1,20,0.00,,---,0.00,VWS V14.01,2013-04-02 22:14:00,
2013-04-02 18:19:00,44.1,5.6,29.98,SSW,195,4.9,7.6,20,0.00,,---,0.00,VWS V14.01,2013-04-02 22:19:00,
2013-04-02 18:24:00,44.1,5.6,29.98,SSW,199,7.6,8.1,20,0.00,,---,0.00,VWS V14.01,2013-04-02 22:24:00,
2013-04-02 18:29:00,44.1,5.6,29.98,SW,225,6.3,6.3,20,0.00,,---,0.00,VWS V14.01,2013-04-02 22:29:00,
2013-04-02 18:34:00,44.1,5.6,29.98,SW,234,6.3,6.3,20,0.00,,---,0.00,VWS V14.01,2013-04-02 22:34:00,
2013-04-02 18:39:00,43.7,5.3,29.98,South,179,3.6,6.3,20,0.00,,---,0.00,VWS V14.01,2013-04-02 22:39:00,
2013-04-02 18:44:00,42.8,4.5,29.98,SW,229,3.6,6.7,20,0.00,,---,0.00,VWS V14.01,2013-04-02 22:44:00,
2013-04-02 18:49:00,41.9,4.8,29.98,SW,224,5.4,7.6,21,0.00,,---,0.00,VWS V14.01,2013-04-02 22:49:00,
2013-04-02 18:54:00,41.4,4.4,29.98,WSW,241,6.3,6.3,21,0.00,,---,0.00,VWS V14.01,2013-04-02 22:54:00,
2013-04-02 18:59:00,40.6,3.8,30.01,SSW,198,7.6,8.3,21,0.00,,---,0.00,VWS V14.01,2013-04-02 22:59:00,
2013-04-02 19:04:00,40.5,3.6,30.01,SSE,153,2.7,5.8,21,0.00,,---,0.00,VWS V14.01,2013-04-02 23:04:00,
2013-04-02 19:09:00,40.3,3.5,30.01,SW,221,3.1,4.0,21,0.00,,---,0.00,VWS V14.01,2013-04-02 23:09:00,
2013-04-02 19:14:00,39.9,3.2,30.01,SW,230,0.0,4.9,21,0.00,,---,0.00,VWS V14.01,2013-04-02 23:14:00,
2013-04-02 19:19:00,39.7,3.0,30.01,SSE,164,8.1,8.7,21,0.00,,---,0.00,VWS V14.01,2013-04-02 23:19:00,
2013-04-02 19:24:00,39.4,2.7,30.01,SSW,213,2.7,4.0,21,0.00,,---,0.00,VWS V14.01,2013-04-02 23:24:00,
2013-04-02 19:29:00,39.2,2.6,30.01,SW,219,2.7,4.0,21,0.00,,---,0.00,VWS V14.01,2013-04-02 23:29:00,
2013-04-02 19:34:00,38.8,2.3,30.01,SSW,208,4.0,4.0,21,0.00,,---,0.00,VWS V14.01,2013-04-02 23:34:00,
2013-04-02 19:39:00,38.5,2.0,30.01,SSW,208,0.0,0.0,21,0.00,,---,0.00,VWS V14.01,2013-04-02 23:39:00,
2013-04-02 19:44:00,37.9,1.5,30.01,SSW,208,0.0,0.0,21,0.00,,---,0.00,VWS V14.01,2013-04-02 23:44:00,
2013-04-02 19:49:00,37.4,1.0,30.01,WSW,254,0.0,2.2,21,0.00,,---,0.00,VWS V14.01,2013-04-02 23:49:00,
2013-04-02 19:54:00,36.9,1.6,30.01,WSW,248,0.0,0.0,22,0.00,,---,0.00,VWS V14.01,2013-04-02 23:54:00,
2013-04-02 19:59:00,36.1,1.0,30.01,NE,55,0.0,2.2,22,0.00,,---,0.00,VWS V14.01,2013-04-02 23:59:00,
2013-04-02 20:05:00,35.6,0.5,30.01,NE,46,0.0,0.0,22,0.00,,---,0.00,VWS V14.01,2013-04-03 00:05:00,
2013-04-02 20:10:00,35.1,0.1,30.01,NE,52,0.0,0.0,22,0.00,,---,0.00,VWS V14.01,2013-04-03 00:10:00,
2013-04-02 20:15:00,34.9,-0.1,30.01,NE,55,2.2,3.1,22,0.00,,---,0.00,VWS V14.01,2013-04-03 00:15:00,
2013-04-02 20:20:00,35.2,0.2,30.01,East,89,0.0,0.0,22,0.00,,---,0.00,VWS V14.01,2013-04-03 00:20:00,
2013-04-02 20:25:00,35.1,0.1,30.01,NE,41,0.0,0.0,22,0.00,,---,0.00,VWS V14.01,2013-04-03 00:25:00,
2013-04-02 20:30:00,34.7,-0.2,30.01,NE,43,0.0,0.0,22,0.00,,---,0.00,VWS V14.01,2013-04-03 00:30:00,
2013-04-02 20:35:00,34.3,2.2,30.01,NNE,30,2.7,2.7,25,0.00,,---,0.00,VWS V14.01,2013-04-03 00:35:00,
2013-04-02 20:40:00,34.0,1.9,30.01,NE,34,2.2,3.1,25,0.00,,---,0.00,VWS V14.01,2013-04-03 00:40:00,
2013-04-02 20:45:00,33.8,1.7,30.01,East,91,2.2,3.1,25,0.00,,---,0.00,VWS V14.01,2013-04-03 00:45:00,
2013-04-02 20:50:00,33.8,1.7,30.01,NNE,25,2.7,2.7,25,0.00,,---,0.00,VWS V14.01,2013-04-03 00:50:00,
2013-04-02 20:56:00,33.8,1.7,30.01,NNE,30,2.7,2.7,25,0.00,,---,0.00,VWS V14.01,2013-04-03 00:56:00,
2013-04-02 21:01:00,33.6,1.6,30.01,NE,34,2.2,3.1,25,0.00,,---,0.00,VWS V14.01,2013-04-03 01:01:00,
2013-04-02 21:07:00,33.6,1.6,30.01,NE,42,0.0,2.2,25,0.00,,---,0.00,VWS V14.01,2013-04-03 01:07:00,
2013-04-02 21:12:00,33.6,1.6,30.03,NE,34,2.7,2.7,25,0.00,,---,0.00,VWS V14.01,2013-04-03 01:12:00,
2013-04-02 21:17:00,33.4,1.4,30.03,NE,36,3.1,3.1,25,0.00,,---,0.00,VWS V14.01,2013-04-03 01:17:00,
2013-04-02 21:22:00,32.9,0.9,30.03,NE,49,3.6,3.6,25,0.00,,---,0.00,VWS V14.01,2013-04-03 01:22:00,
2013-04-02 21:27:00,32.7,0.8,30.03,NE,49,0.0,0.0,25,0.00,,---,0.00,VWS V14.01,2013-04-03 01:27:00,
2013-04-02 21:32:00,32.5,0.6,30.03,NNE,26,0.0,0.0,25,0.00,,---,0.00,VWS V14.01,2013-04-03 01:32:00,
2013-04-02 21:37:00,32.5,0.6,30.03,NE,40,3.1,3.1,25,0.00,,---,0.00,VWS V14.01,2013-04-03 01:37:00,
2013-04-02 21:42:00,32.5,3.1,30.03,NE,43,2.2,3.1,28,0.00,,---,0.00,VWS V14.01,2013-04-03 01:42:00,
2013-04-02 21:47:00,32.2,2.8,30.03,NE,48,3.6,3.6,28,0.00,,---,0.00,VWS V14.01,2013-04-03 01:47:00,
2013-04-02 21:53:00,32.0,2.6,30.03,NE,38,3.1,3.1,28,0.00,,---,0.00,VWS V14.01,2013-04-03 01:53:00,
2013-04-02 21:58:00,32.0,2.6,30.03,NE,41,3.1,3.6,28,0.00,,---,0.00,VWS V14.01,2013-04-03 01:58:00,
2013-04-02 22:03:00,31.6,3.8,30.03,NE,41,2.7,2.7,30,0.00,,---,0.00,VWS V14.01,2013-04-03 02:03:00,
2013-04-02 22:08:00,31.5,3.6,30.03,NE,34,3.1,3.1,30,0.00,,---,0.00,VWS V14.01,2013-04-03 02:08:00,
2013-04-02 22:13:00,31.6,3.8,30.03,NE,42,2.7,3.1,30,0.00,,---,0.00,VWS V14.01,2013-04-03 02:13:00,
2013-04-02 22:18:00,31.6,3.8,30.03,NE,42,2.7,2.7,30,0.00,,---,0.00,VWS V14.01,2013-04-03 02:18:00,
2013-04-02 22:23:00,31.6,3.8,30.03,NE,42,2.7,2.7,30,0.00,,---,0.00,VWS V14.01,2013-04-03 02:23:00,
2013-04-02 22:28:00,31.5,3.6,30.03,NE,54,2.7,3.1,30,0.00,,---,0.00,VWS V14.01,2013-04-03 02:28:00,
2013-04-02 22:33:00,31.5,3.6,30.03,NE,48,0.0,2.2,30,0.00,,---,0.00,VWS V14.01,2013-04-03 02:33:00,
2013-04-02 22:38:00,31.5,3.6,30.03,NE,48,2.7,3.1,30,0.00,,---,0.00,VWS V14.01,2013-04-03 02:38:00,
2013-04-02 22:43:00,31.5,3.6,30.03,NE,48,2.7,3.1,30,0.00,,---,0.00,VWS V14.01,2013-04-03 02:43:00,
2013-04-02 22:48:00,31.3,3.5,30.03,NE,48,2.7,3.1,30,0.00,,---,0.00,VWS V14.01,2013-04-03 02:48:00,
2013-04-02 22:53:00,31.1,3.3,30.03,NE,49,2.7,3.6,30,0.00,,---,0.00,VWS V14.01,2013-04-03 02:53:00,
2013-04-02 22:58:00,31.1,3.3,30.03,NE,49,2.7,3.1,30,0.00,,---,0.00,VWS V14.01,2013-04-03 02:58:00,
2013-04-02 23:03:00,30.9,3.8,30.03,NE,48,2.7,2.7,31,0.00,,---,0.00,VWS V14.01,2013-04-03 03:03:00,
2013-04-02 23:08:00,30.6,3.5,30.03,NE,46,3.1,3.1,31,0.00,,---,0.00,VWS V14.01,2013-04-03 03:08:00,
2013-04-02 23:13:00,30.4,3.4,30.03,NE,46,3.1,3.6,31,0.00,,---,0.00,VWS V14.01,2013-04-03 03:13:00,
2013-04-02 23:18:00,30.2,3.2,30.03,NE,47,2.7,3.1,31,0.00,,---,0.00,VWS V14.01,2013-04-03 03:18:00,
2013-04-02 23:24:00,30.2,3.2,30.03,NE,49,3.1,3.1,31,0.00,,---,0.00,VWS V14.01,2013-04-03 03:24:00,
2013-04-02 23:29:00,30.2,3.9,30.03,NE,48,2.7,3.1,32,0.00,,---,0.00,VWS V14.01,2013-04-03 03:29:00,
2013-04-02 23:34:00,29.8,3.6,30.03,NE,47,3.1,3.1,32,0.00,,---,0.00,VWS V14.01,2013-04-03 03:34:00,
2013-04-02 23:39:00,29.8,3.6,30.03,NE,47,2.7,3.1,32,0.00,,---,0.00,VWS V14.01,2013-04-03 03:39:00,
2013-04-02 23:44:00,29.7,3.4,30.03,NE,48,2.7,3.1,32,0.00,,---,0.00,VWS V14.01,2013-04-03 03:44:00,
2013-04-02 23:49:00,29.5,3.3,30.03,NE,48,2.7,3.6,32,0.00,,---,0.00,VWS V14.01,2013-04-03 03:49:00,
2013-04-02 23:54:00,29.5,3.3,30.03,NE,52,2.7,3.1,32,0.00,,---,0.00,VWS V14.01,2013-04-03 03:54:00,
2013-04-02 23:59:00,29.7,3.4,30.03,East,98,3.6,3.6,32,0.00,,---,0.00,VWS V14.01,2013-04-03 03:59:00,